createdAt,value
2019-02-15T00:02:13.927Z,12.27
2019-02-15T00:05:29.418Z,10.10
2019-02-15T00:07:56.118Z,11.90
2019-02-15T00:10:23.203Z,9.43
2019-02-15T00:12:50.197Z,9.50
2019-02-15T00:15:17.421Z,8.70
2019-02-15T00:18:08.780Z,11.27
2019-02-15T00:20:38.680Z,11.10
2019-02-15T00:23:05.921Z,11.23
2019-02-15T00:25:32.960Z,9.70
2019-02-15T00:27:59.937Z,9.73
2019-02-15T00:30:26.954Z,13.07
2019-02-15T00:32:53.957Z,9.07
2019-02-15T00:35:20.880Z,10.03
2019-02-15T00:37:47.828Z,11.67
2019-02-15T00:40:16.509Z,9.90
2019-02-15T00:42:43.701Z,11.47
2019-02-15T00:45:10.916Z,10.50
2019-02-15T00:47:41.296Z,10.70
2019-02-15T00:50:14.372Z,9.90
2019-02-15T00:52:46.856Z,8.97
2019-02-15T00:55:25.936Z,11.00
2019-02-15T00:57:58.785Z,11.30
2019-02-15T01:00:50.852Z,10.73
2019-02-15T01:03:32.105Z,13.97
2019-02-15T01:06:14.706Z,13.63
2019-02-15T01:09:02.416Z,11.50
2019-02-15T01:11:33.754Z,11.17
2019-02-15T01:14:00.881Z,9.90
2019-02-15T01:16:27.908Z,10.73
2019-02-15T01:18:54.993Z,12.63
2019-02-15T01:21:22.052Z,10.40
2019-02-15T01:23:49.062Z,10.77
2019-02-15T01:26:21.213Z,12.53
2019-02-15T01:28:57.693Z,11.20
2019-02-15T01:31:44.250Z,14.60
2019-02-15T01:34:36.964Z,10.90
2019-02-15T01:37:12.469Z,12.33
2019-02-15T01:39:45.676Z,12.77
2019-02-15T01:42:25.254Z,12.47
2019-02-15T01:45:00.048Z,11.67
2019-02-15T01:47:30.866Z,9.93
2019-02-15T01:49:57.817Z,10.43
2019-02-15T01:52:24.786Z,16.43
2019-02-15T01:54:51.812Z,9.47
2019-02-15T01:57:18.760Z,11.40
2019-02-15T01:59:45.736Z,15.10
2019-02-15T02:02:12.727Z,9.47
2019-02-15T02:04:39.716Z,11.13
2019-02-15T02:07:06.674Z,11.30
2019-02-15T02:09:33.651Z,14.03
2019-02-15T02:12:00.615Z,10.73
2019-02-15T02:14:27.605Z,13.10
2019-02-15T02:23:38.358Z,10.60
2019-02-15T02:26:05.393Z,8.80
2019-02-15T02:28:32.356Z,12.23
2019-02-15T02:30:59.317Z,14.17
2019-02-15T02:33:26.368Z,13.13
2019-02-15T02:35:53.345Z,12.10
2019-02-15T02:38:20.393Z,9.20
2019-02-15T02:40:47.404Z,11.07
2019-02-15T02:43:14.528Z,12.40
2019-02-15T02:45:41.464Z,8.70
2019-02-15T02:48:08.438Z,11.83
2019-02-15T02:50:35.561Z,10.03
2019-02-15T02:53:02.424Z,11.53
2019-02-15T02:55:29.396Z,14.33
2019-02-15T02:57:56.405Z,14.43
2019-02-15T03:00:32.964Z,13.00
2019-02-15T03:02:50.341Z,12.50
2019-02-15T03:05:17.602Z,12.73
2019-02-15T03:07:44.790Z,11.87
2019-02-15T03:10:11.807Z,11.27
2019-02-15T03:12:38.799Z,10.77
2019-02-15T03:15:06.209Z,10.00
2019-02-15T03:17:33.260Z,11.43
2019-02-15T03:20:00.314Z,14.23
2019-02-15T03:22:27.475Z,12.87
2019-02-15T03:24:54.466Z,13.57
2019-02-15T03:27:21.597Z,14.27
2019-02-15T03:29:48.589Z,11.50
2019-02-15T03:32:15.625Z,11.90
2019-02-15T03:34:42.618Z,11.27
2019-02-15T03:37:31.168Z,11.23
2019-02-15T03:40:04.093Z,13.03
2019-02-15T03:42:31.056Z,9.13
2019-02-15T03:44:59.350Z,11.27
2019-02-15T03:47:27.332Z,11.03
2019-02-15T03:49:54.295Z,12.87
2019-02-15T03:52:21.230Z,11.10
2019-02-15T03:54:48.172Z,10.60
2019-02-15T03:57:15.198Z,10.60
2019-02-15T03:59:42.181Z,12.53
2019-02-15T04:02:09.153Z,11.13
2019-02-15T04:04:36.099Z,9.97
2019-02-15T04:07:03.073Z,10.80
2019-02-15T04:09:30.043Z,10.93
2019-02-15T04:11:57.036Z,11.90
2019-02-15T04:14:32.635Z,9.60
2019-02-15T04:16:51.086Z,13.03
2019-02-15T04:19:18.121Z,9.47
2019-02-15T04:21:45.221Z,9.30
2019-02-15T04:24:13.564Z,8.37
2019-02-15T04:26:39.250Z,7.77
2019-02-15T04:29:06.235Z,10.00
2019-02-15T04:31:33.241Z,10.50
2019-02-15T04:34:00.210Z,10.40
2019-02-15T04:36:27.467Z,11.07
2019-02-15T04:38:54.636Z,8.67
2019-02-15T04:41:21.802Z,11.63
2019-02-15T04:43:48.864Z,10.67
2019-02-15T04:46:17.127Z,9.30
2019-02-15T04:48:44.154Z,10.27
2019-02-15T04:51:11.262Z,10.63
2019-02-15T04:53:38.330Z,14.37
2019-02-15T04:56:05.461Z,10.00
2019-02-15T04:58:32.432Z,9.23
2019-02-15T05:00:59.393Z,8.87
2019-02-15T05:03:26.374Z,10.67
2019-02-15T05:05:53.316Z,11.73
2019-02-15T05:08:20.421Z,11.27
2019-02-15T05:10:47.441Z,12.50
2019-02-15T05:13:14.508Z,10.60
2019-02-15T05:15:41.471Z,10.03
2019-02-15T05:18:08.433Z,9.63
2019-02-15T05:20:35.423Z,9.13
2019-02-15T05:23:02.408Z,12.10
2019-02-15T05:25:29.492Z,10.33
2019-02-15T05:27:56.640Z,11.27
2019-02-15T05:30:23.755Z,9.83
2019-02-15T05:32:50.822Z,10.73
2019-02-15T05:35:17.951Z,12.67
2019-02-15T05:37:44.936Z,8.20
2019-02-15T05:40:11.920Z,10.23
2019-02-15T05:42:38.936Z,9.60
2019-02-15T05:45:26.950Z,13.33
2019-02-15T05:47:54.478Z,11.37
2019-02-15T05:50:21.448Z,12.17
2019-02-15T05:52:48.487Z,10.87
2019-02-15T05:55:15.481Z,9.33
2019-02-15T05:57:42.490Z,10.70
2019-02-15T06:00:09.524Z,9.77
2019-02-15T06:02:36.524Z,9.47
2019-02-15T06:05:03.683Z,9.97
2019-02-15T06:07:30.694Z,9.00
2019-02-15T06:09:59.175Z,10.67
2019-02-15T06:12:26.201Z,9.43
2019-02-15T06:14:53.329Z,10.37
2019-02-15T06:17:21.271Z,9.97
2019-02-15T06:19:48.371Z,10.37
2019-02-15T06:22:15.930Z,9.83
2019-02-15T06:24:42.997Z,10.53
2019-02-15T06:27:10.453Z,11.90
2019-02-15T06:29:37.558Z,10.23
2019-02-15T06:32:04.796Z,9.90
2019-02-15T06:34:31.968Z,11.00
2019-02-15T06:36:59.130Z,17.13
2019-02-15T06:39:26.184Z,10.43
2019-02-15T06:41:53.255Z,13.67
2019-02-15T06:44:21.201Z,8.70
2019-02-15T06:46:48.432Z,9.60
2019-02-15T06:49:15.649Z,11.30
2019-02-15T06:51:42.672Z,9.83
2019-02-15T06:54:09.646Z,10.40
2019-02-15T06:56:36.602Z,9.20
2019-02-15T06:59:09.225Z,10.67
2019-02-15T07:01:41.466Z,11.90
2019-02-15T07:04:18.405Z,12.27
2019-02-15T07:06:45.393Z,10.87
2019-02-15T07:09:12.336Z,12.63
2019-02-15T07:11:39.333Z,10.60
2019-02-15T07:14:06.285Z,10.37
2019-02-15T07:16:33.237Z,13.83
2019-02-15T07:19:00.208Z,11.17
2019-02-15T07:21:27.237Z,11.53
2019-02-15T07:23:54.151Z,9.97
2019-02-15T07:26:21.308Z,15.93
2019-02-15T07:28:48.274Z,10.63
2019-02-15T07:31:15.235Z,11.03
2019-02-15T07:33:42.200Z,9.13
2019-02-15T07:36:09.187Z,9.33
2019-02-15T07:38:36.149Z,10.67
2019-02-15T07:41:03.121Z,8.73
2019-02-15T07:43:30.137Z,11.67
2019-02-15T07:45:57.134Z,11.10
2019-02-15T07:48:24.029Z,9.57
2019-02-15T07:50:51.467Z,9.53
2019-02-15T07:53:18.424Z,10.60
2019-02-15T07:55:45.374Z,14.27
2019-02-15T07:58:12.349Z,10.63
2019-02-15T08:00:39.332Z,9.47
2019-02-15T08:03:06.261Z,14.37
2019-02-15T08:05:33.249Z,9.00
2019-02-15T08:08:00.205Z,10.90
2019-02-15T08:10:27.177Z,9.07
2019-02-15T08:12:54.164Z,12.33
2019-02-15T08:15:21.105Z,10.93
2019-02-15T08:17:48.066Z,28.40
2019-02-15T08:20:15.240Z,22.07
2019-02-15T08:22:42.265Z,12.60
2019-02-15T08:25:09.205Z,11.40
2019-02-15T08:27:36.178Z,59.27
2019-02-15T08:30:03.132Z,10.03
2019-02-15T08:32:30.104Z,12.87
2019-02-15T08:34:57.164Z,10.27
2019-02-15T08:37:24.364Z,15.90
2019-02-15T08:39:51.471Z,10.10
2019-02-15T08:42:18.453Z,10.70
2019-02-15T08:44:45.388Z,12.87
2019-02-15T08:47:12.340Z,10.33
2019-02-15T08:49:41.426Z,11.00
2019-02-15T08:52:13.149Z,12.97
2019-02-15T08:54:39.955Z,13.47
2019-02-15T08:57:06.937Z,9.17
2019-02-15T08:59:33.952Z,9.97
2019-02-15T09:02:20.988Z,16.40
2019-02-15T09:04:48.051Z,20.73
2019-02-15T09:07:14.852Z,15.37
2019-02-15T09:09:41.849Z,9.30
2019-02-15T09:12:08.817Z,8.23
2019-02-15T09:14:35.764Z,8.33
2019-02-15T09:17:02.732Z,9.33
2019-02-15T09:19:32.128Z,8.73
2019-02-15T09:22:00.041Z,10.43
2019-02-15T09:24:27.823Z,9.50
2019-02-15T09:26:54.804Z,9.93
2019-02-15T09:29:21.737Z,8.53
2019-02-15T09:31:48.756Z,8.37
2019-02-15T09:34:15.711Z,8.37
2019-02-15T09:36:42.697Z,9.68
2019-02-15T09:39:09.668Z,8.20
2019-02-15T09:41:36.649Z,9.23
2019-02-15T09:44:03.651Z,8.70
2019-02-15T09:46:30.600Z,8.85
2019-02-15T09:48:57.540Z,11.08
2019-02-15T09:51:24.497Z,8.03
2019-02-15T09:53:52.031Z,7.37
2019-02-15T09:56:19.033Z,7.30
2019-02-15T09:58:45.989Z,7.75
2019-02-15T10:01:13.023Z,7.85
2019-02-15T10:03:39.986Z,9.73
2019-02-15T10:06:06.976Z,7.72
2019-02-15T10:08:34.140Z,8.20
2019-02-15T10:11:01.084Z,7.90
2019-02-15T10:13:28.043Z,8.38
2019-02-15T10:15:55.064Z,8.08
2019-02-15T10:18:22.008Z,7.62
2019-02-15T10:20:48.995Z,7.55
2019-02-15T10:23:15.989Z,7.40
2019-02-15T10:25:42.938Z,7.75
2019-02-15T10:28:09.892Z,8.18
2019-02-15T10:30:36.880Z,7.47
2019-02-15T10:33:03.882Z,7.28
2019-02-15T10:35:30.830Z,8.25
2019-02-15T10:37:57.915Z,8.40
2019-02-15T10:40:24.929Z,8.23
2019-02-15T10:42:51.947Z,7.55
2019-02-15T10:45:18.927Z,6.72
2019-02-15T10:47:45.900Z,10.20
2019-02-15T10:50:12.872Z,6.83
2019-02-15T10:52:39.834Z,7.05
2019-02-15T10:55:07.559Z,7.72
2019-02-15T10:57:34.647Z,6.78
2019-02-15T11:00:01.603Z,7.40
2019-02-15T11:02:28.536Z,5.78
2019-02-15T11:04:55.506Z,6.05
2019-02-15T11:07:22.498Z,7.33
2019-02-15T11:09:49.445Z,6.00
2019-02-15T11:12:16.396Z,6.60
2019-02-15T11:14:43.357Z,5.35
2019-02-15T11:17:10.301Z,5.78
2019-02-15T11:19:37.267Z,7.08
2019-02-15T11:22:04.216Z,5.28
2019-02-15T11:24:31.184Z,5.55
2019-02-15T11:26:58.118Z,5.65
2019-02-15T11:29:25.103Z,5.62
2019-02-15T11:31:52.063Z,7.55
2019-02-15T11:34:19.000Z,4.12
2019-02-15T11:36:45.981Z,3.92
2019-02-15T11:39:13.811Z,4.03
2019-02-15T11:41:40.731Z,4.33
2019-02-15T11:44:07.715Z,3.75
2019-02-15T11:46:34.932Z,3.40
2019-02-15T11:49:01.887Z,2.77
2019-02-15T11:51:28.845Z,2.95
2019-02-15T11:53:55.779Z,3.12
2019-02-15T11:56:22.856Z,3.40
2019-02-15T11:58:49.843Z,2.90
2019-02-15T12:01:16.818Z,2.77
2019-02-15T12:03:43.760Z,2.95
2019-02-15T12:06:10.737Z,3.87
2019-02-15T12:08:37.673Z,2.45
2019-02-15T12:11:04.596Z,2.15
2019-02-15T12:13:31.543Z,2.95
2019-02-15T12:15:58.504Z,2.17
2019-02-15T12:18:25.447Z,2.40
2019-02-15T12:20:52.400Z,1.92
2019-02-15T12:23:19.343Z,2.12
2019-02-15T12:25:46.334Z,2.85
2019-02-15T12:28:13.264Z,1.80
2019-02-15T12:30:40.217Z,2.00
2019-02-15T12:33:07.156Z,1.37
2019-02-15T12:35:34.117Z,2.27
2019-02-15T12:38:01.074Z,2.13
2019-02-15T12:40:28.012Z,2.40
2019-02-15T12:42:54.971Z,1.70
2019-02-15T12:45:21.960Z,1.50
2019-02-15T12:47:49.045Z,1.43
2019-02-15T12:50:16.017Z,1.00
2019-02-15T12:52:42.978Z,1.23
2019-02-15T12:55:10.028Z,5.10
2019-02-15T12:57:38.098Z,1.70
2019-02-15T13:00:07.364Z,1.87
2019-02-15T13:02:35.711Z,1.43
2019-02-15T13:05:02.789Z,1.07
2019-02-15T13:07:31.755Z,2.60
2019-02-15T13:09:58.173Z,3.07
2019-02-15T13:12:25.301Z,1.60
2019-02-15T13:14:52.410Z,1.23
2019-02-15T13:17:24.698Z,1.43
2019-02-15T13:19:46.494Z,2.17
2019-02-15T13:22:13.912Z,1.33
2019-02-15T13:24:40.423Z,2.70
2019-02-15T13:27:07.422Z,1.30
2019-02-15T13:29:34.380Z,1.20
2019-02-15T13:32:01.377Z,2.63
2019-02-15T13:34:28.324Z,1.07
2019-02-15T13:36:55.291Z,2.10
2019-02-15T13:39:22.228Z,1.30
2019-02-15T13:41:49.224Z,1.20
2019-02-15T13:44:17.835Z,1.30
2019-02-15T13:46:43.124Z,2.90
2019-02-15T13:49:10.096Z,1.50
2019-02-15T13:51:37.048Z,2.60
2019-02-15T13:54:04.040Z,1.50
2019-02-15T13:56:31.011Z,2.20
2019-02-15T13:58:59.247Z,1.20
2019-02-15T14:01:26.199Z,2.23
2019-02-15T14:03:53.170Z,2.20
2019-02-15T14:06:20.163Z,1.53
2019-02-15T14:08:47.129Z,1.77
2019-02-15T14:11:14.110Z,1.30
2019-02-15T14:13:41.074Z,3.50
2019-02-15T14:16:08.027Z,3.70
2019-02-15T14:18:34.994Z,1.57
2019-02-15T14:21:02.072Z,1.60
2019-02-15T14:23:29.048Z,3.10
2019-02-15T14:25:56.216Z,2.80
2019-02-15T14:28:23.164Z,1.80
2019-02-15T14:30:50.184Z,1.47
2019-02-15T14:33:17.791Z,2.13
2019-02-15T14:35:45.797Z,1.80
2019-02-15T14:38:13.687Z,1.73
2019-02-15T14:40:40.757Z,1.90
2019-02-15T14:43:07.736Z,1.97
2019-02-15T14:45:35.292Z,2.20
2019-02-15T14:48:02.377Z,1.87
2019-02-15T14:50:29.356Z,1.60
2019-02-15T14:52:56.481Z,1.90
2019-02-15T14:55:23.616Z,2.10
2019-02-15T14:57:50.565Z,1.83
2019-02-15T15:00:17.946Z,2.17
2019-02-15T15:02:44.900Z,3.60
2019-02-15T15:05:12.091Z,1.60
2019-02-15T15:07:39.043Z,2.87
2019-02-15T15:10:06.777Z,3.73
2019-02-15T15:12:33.779Z,1.97
2019-02-15T15:15:00.738Z,1.87
2019-02-15T15:17:27.701Z,2.00
2019-02-15T15:19:54.642Z,1.80
2019-02-15T15:22:21.605Z,3.10
2019-02-15T15:24:48.528Z,1.80
2019-02-15T15:27:15.508Z,1.93
2019-02-15T15:29:42.499Z,4.40
2019-02-15T15:32:09.447Z,2.50
2019-02-15T15:34:36.396Z,4.40
2019-02-15T15:37:03.355Z,2.10
2019-02-15T15:39:30.408Z,2.10
2019-02-15T15:41:57.652Z,2.13
2019-02-15T15:44:24.399Z,2.00
2019-02-15T15:46:51.397Z,2.03
2019-02-15T15:49:18.350Z,1.93
2019-02-15T15:51:45.367Z,2.13
2019-02-15T15:54:12.350Z,3.70
2019-02-15T15:56:39.304Z,2.03
2019-02-15T15:59:06.386Z,2.87
2019-02-15T16:01:33.672Z,6.33
2019-02-15T16:04:00.632Z,6.00
2019-02-15T16:06:27.615Z,5.53
2019-02-15T16:08:54.655Z,5.80
2019-02-15T16:11:21.656Z,5.53
2019-02-15T16:13:48.626Z,6.60
2019-02-15T16:16:15.611Z,4.23
2019-02-15T16:18:42.674Z,6.30
2019-02-15T16:21:09.621Z,3.97
2019-02-15T16:23:36.727Z,4.73
2019-02-15T16:26:03.696Z,5.43
2019-02-15T16:28:30.647Z,3.90
2019-02-15T16:30:57.641Z,4.33
2019-02-15T16:33:24.608Z,3.07
2019-02-15T16:35:51.589Z,5.00
2019-02-15T16:38:18.620Z,6.03
2019-02-15T16:40:45.594Z,5.43
2019-02-15T16:43:12.535Z,3.97
2019-02-15T16:45:39.496Z,3.47
2019-02-15T16:48:06.464Z,4.67
2019-02-15T16:50:33.399Z,5.53
2019-02-15T16:53:00.351Z,4.97
2019-02-15T16:55:27.321Z,3.20
2019-02-15T16:57:54.276Z,13.00
2019-02-15T17:00:21.241Z,4.27
2019-02-15T17:02:48.762Z,3.90
2019-02-15T17:05:15.704Z,4.47
2019-02-15T17:07:42.687Z,4.10
2019-02-15T17:10:09.643Z,3.77
2019-02-15T17:12:36.572Z,3.90
2019-02-15T17:15:03.662Z,4.97
2019-02-15T17:17:30.640Z,5.93
2019-02-15T17:19:57.587Z,5.57
2019-02-15T17:22:24.544Z,5.60
2019-02-15T17:24:51.495Z,5.23
2019-02-15T17:27:18.562Z,6.57
2019-02-15T17:29:45.500Z,4.00
2019-02-15T17:32:12.437Z,6.43
2019-02-15T17:34:39.408Z,8.90
2019-02-15T17:37:06.661Z,6.03
2019-02-15T17:39:33.400Z,6.73
2019-02-15T17:42:00.337Z,5.07
2019-02-15T17:44:27.325Z,8.23
2019-02-15T17:46:54.298Z,6.20
2019-02-15T17:49:21.242Z,7.23
2019-02-15T17:51:48.194Z,4.70
2019-02-15T17:54:15.131Z,7.83
2019-02-15T17:56:42.088Z,6.83
2019-02-15T17:59:09.057Z,5.20
2019-02-15T18:01:36.137Z,7.63
2019-02-15T18:04:03.801Z,6.47
2019-02-15T18:06:31.102Z,8.00
2019-02-15T18:08:58.165Z,9.23
2019-02-15T18:11:25.169Z,7.03
2019-02-15T18:13:52.152Z,8.77
2019-02-15T18:16:19.093Z,7.60
2019-02-15T18:18:46.031Z,8.43
2019-02-15T18:21:13.020Z,8.73
2019-02-15T18:23:39.972Z,9.23
2019-02-15T18:26:06.999Z,10.90
2019-02-15T18:28:34.012Z,11.83
2019-02-15T18:31:00.941Z,7.93
2019-02-15T18:33:27.944Z,6.83
2019-02-15T18:35:54.992Z,7.53
2019-02-15T18:38:21.909Z,10.20
2019-02-15T18:40:48.901Z,13.60
2019-02-15T18:43:15.889Z,12.17
2019-02-15T18:45:42.883Z,18.53
2019-02-15T18:48:09.847Z,10.63
2019-02-15T18:50:36.836Z,9.57
2019-02-15T18:53:03.817Z,11.43
2019-02-15T18:55:30.829Z,9.53
2019-02-15T18:57:57.826Z,11.07
2019-02-15T19:00:24.784Z,7.90
2019-02-15T19:02:51.745Z,6.20
2019-02-15T19:05:19.324Z,8.43
2019-02-15T19:07:46.381Z,8.17
2019-02-15T19:10:15.620Z,9.87
2019-02-15T19:12:42.631Z,8.70
2019-02-15T19:15:10.612Z,8.53
2019-02-15T19:17:37.559Z,7.70
2019-02-15T19:20:05.141Z,8.27
2019-02-15T19:22:32.136Z,8.23
2019-02-15T19:24:59.116Z,16.70
2019-02-15T19:27:26.101Z,28.77
2019-02-15T19:29:53.080Z,25.67
2019-02-15T19:32:20.049Z,24.90
2019-02-15T19:34:47.037Z,14.87
2019-02-15T19:37:14.009Z,15.87
2019-02-15T19:39:41.039Z,12.83
2019-02-15T19:42:13.098Z,12.43
2019-02-15T19:44:40.044Z,11.63
2019-02-15T19:47:07.018Z,25.03
2019-02-15T19:49:38.879Z,19.60
2019-02-15T19:52:00.943Z,17.77
2019-02-15T19:54:27.920Z,17.97
2019-02-15T19:56:54.927Z,17.00
2019-02-15T19:59:21.888Z,16.33
2019-02-15T20:01:48.838Z,11.20
2019-02-15T20:04:15.792Z,10.80
2019-02-15T20:06:44.283Z,10.13
2019-02-15T20:09:11.243Z,8.93
2019-02-15T20:11:38.257Z,9.30
2019-02-15T20:14:05.310Z,9.50
2019-02-15T20:16:32.281Z,11.60
2019-02-15T20:18:59.321Z,9.37
2019-02-15T20:21:26.319Z,9.57
2019-02-15T20:23:53.305Z,12.90
2019-02-15T20:26:20.291Z,15.57
2019-02-15T20:28:47.267Z,11.67
2019-02-15T20:31:14.245Z,11.87
2019-02-15T20:33:41.233Z,11.60
2019-02-15T20:36:08.239Z,11.60
2019-02-15T20:38:35.269Z,11.00
2019-02-15T20:41:02.265Z,14.97
2019-02-15T20:43:29.216Z,16.80
2019-02-15T20:45:56.188Z,10.33
2019-02-15T20:48:23.263Z,10.57
2019-02-15T20:50:50.356Z,19.73
2019-02-15T20:53:17.772Z,19.50
2019-02-15T20:55:44.812Z,14.80
2019-02-15T20:58:11.966Z,12.20
2019-02-15T21:00:38.954Z,11.57
2019-02-15T21:03:05.921Z,11.87
2019-02-15T21:05:32.912Z,9.50
2019-02-15T21:08:00.336Z,14.77
2019-02-15T21:10:27.324Z,18.13
2019-02-15T21:12:54.309Z,34.27
2019-02-15T21:15:21.300Z,11.73
2019-02-15T21:17:48.331Z,10.10
2019-02-15T21:20:15.284Z,13.60
2019-02-15T21:22:42.238Z,11.47
2019-02-15T21:25:10.421Z,9.07
2019-02-15T21:27:37.426Z,10.30
2019-02-15T21:30:05.613Z,8.93
2019-02-15T21:32:32.628Z,10.53
2019-02-15T21:34:59.916Z,14.43
2019-02-15T21:37:27.017Z,10.00
2019-02-15T21:39:53.985Z,9.80
2019-02-15T21:42:20.984Z,11.75
2019-02-15T21:44:47.932Z,8.33
2019-02-15T21:47:14.929Z,9.03
2019-02-15T21:49:41.961Z,8.67
2019-02-15T21:52:08.947Z,12.10
2019-02-15T21:54:35.964Z,9.20
2019-02-15T21:57:02.908Z,8.40
2019-02-15T21:59:29.869Z,7.97
2019-02-15T22:01:56.940Z,10.40
2019-02-15T22:04:23.923Z,9.13
2019-02-15T22:06:50.861Z,8.27
2019-02-15T22:09:18.159Z,9.17
2019-02-15T22:11:45.103Z,9.57
2019-02-15T22:14:12.048Z,8.87
2019-02-15T22:16:39.013Z,10.90
2019-02-15T22:19:05.963Z,9.83
2019-02-15T22:21:32.916Z,8.20
2019-02-15T22:23:59.883Z,12.20
2019-02-15T22:26:26.819Z,9.23
2019-02-15T22:28:53.760Z,10.40
2019-02-15T22:31:20.809Z,9.17
2019-02-15T22:33:47.760Z,10.90
2019-02-15T22:36:14.788Z,8.43
2019-02-15T22:38:41.769Z,8.43
2019-02-15T22:41:13.955Z,7.63
2019-02-15T22:43:41.836Z,8.93
2019-02-15T22:46:09.024Z,6.53
2019-02-15T22:48:35.992Z,8.23
2019-02-15T22:51:03.017Z,8.07
2019-02-15T22:53:30.161Z,9.33
2019-02-15T22:55:57.123Z,7.77
2019-02-15T22:58:24.129Z,12.47
2019-02-15T23:00:57.647Z,9.97
2019-02-15T23:03:25.505Z,10.03
2019-02-15T23:05:52.608Z,11.00
2019-02-15T23:08:19.684Z,9.27
2019-02-15T23:10:47.227Z,9.77
2019-02-15T23:13:14.358Z,9.27
2019-02-15T23:15:41.551Z,9.73
2019-02-15T23:18:08.540Z,9.40
2019-02-15T23:20:44.622Z,9.90
2019-02-15T23:23:02.697Z,12.33
2019-02-15T23:25:29.684Z,10.20
2019-02-15T23:27:56.771Z,10.60
2019-02-15T23:30:24.091Z,7.53
2019-02-15T23:32:51.285Z,10.13
2019-02-15T23:35:18.321Z,9.67
2019-02-15T23:37:45.312Z,7.37
2019-02-15T23:40:12.294Z,8.50
2019-02-15T23:42:39.298Z,11.67
2019-02-15T23:45:06.360Z,10.33
2019-02-15T23:47:33.421Z,8.60
2019-02-15T23:50:00.395Z,6.47
2019-02-15T23:52:27.418Z,9.37
2019-02-15T23:54:54.396Z,10.03
2019-02-15T23:57:21.489Z,8.67
2019-02-15T23:59:48.563Z,8.93
